createdAt,value
2023-05-25T00:01:01.310Z,94.70
2023-05-25T00:03:31.373Z,94.80
2023-05-25T00:06:01.532Z,94.90
2023-05-25T00:08:31.240Z,95.00
2023-05-25T00:10:59.588Z,94.70
2023-05-25T00:13:27.639Z,95.10
2023-05-25T00:15:55.660Z,95.60
2023-05-25T00:18:24.911Z,95.30
2023-05-25T00:20:54.260Z,95.30
2023-05-25T00:23:23.552Z,95.30
2023-05-25T00:25:52.966Z,95.40
2023-05-25T00:28:21.029Z,95.30
2023-05-25T00:30:49.653Z,95.30
2023-05-25T00:33:18.047Z,95.70
2023-05-25T00:35:46.646Z,95.40
2023-05-25T00:38:15.533Z,95.70
2023-05-25T00:40:43.732Z,95.40
2023-05-25T00:43:13.984Z,95.70
2023-05-25T00:45:42.095Z,95.70
2023-05-25T00:48:11.165Z,95.70
2023-05-25T00:50:41.823Z,95.40
2023-05-25T00:53:11.417Z,95.40
2023-05-25T00:55:45.393Z,95.40
2023-05-25T00:58:15.535Z,95.50
2023-05-25T01:00:44.910Z,95.40
2023-05-25T01:03:18.235Z,95.40
2023-05-25T01:05:50.151Z,95.30
2023-05-25T01:08:21.218Z,95.30
2023-05-25T01:10:50.652Z,95.60
2023-05-25T01:13:21.772Z,95.30
2023-05-25T01:15:50.929Z,95.30
2023-05-25T01:18:19.092Z,95.30
2023-05-25T01:21:02.791Z,95.30
2023-05-25T01:23:35.941Z,95.40
2023-05-25T01:26:09.620Z,95.80
2023-05-25T01:28:41.812Z,95.80
2023-05-25T01:31:11.058Z,95.50
2023-05-25T01:33:40.407Z,95.50
2023-05-25T01:36:09.917Z,95.50
2023-05-25T01:38:39.043Z,95.60
2023-05-25T01:41:07.106Z,95.60
2023-05-25T01:43:35.182Z,95.70
2023-05-25T01:46:10.701Z,95.70
2023-05-25T01:48:44.997Z,95.80
2023-05-25T01:51:22.099Z,95.80
2023-05-25T01:53:55.151Z,95.80
2023-05-25T01:56:24.468Z,95.80
2023-05-25T01:58:54.451Z,95.90
2023-05-25T02:01:23.804Z,96.00
2023-05-25T02:03:53.494Z,96.00
2023-05-25T02:06:22.951Z,96.00
2023-05-25T02:08:50.962Z,96.00
2023-05-25T02:11:19.046Z,96.00
2023-05-25T02:13:47.086Z,96.00
2023-05-25T02:16:15.109Z,96.00
2023-05-25T02:18:44.642Z,96.10
2023-05-25T02:21:13.348Z,96.10
2023-05-25T02:23:42.768Z,96.20
2023-05-25T02:26:11.003Z,96.20
2023-05-25T02:28:39.016Z,96.20
2023-05-25T02:31:07.127Z,96.30
2023-05-25T02:33:35.173Z,96.30
2023-05-25T02:36:03.273Z,96.40
2023-05-25T02:38:31.305Z,96.70
2023-05-25T02:41:01.412Z,96.40
2023-05-25T02:43:29.507Z,96.50
2023-05-25T02:45:57.603Z,96.60
2023-05-25T02:48:25.660Z,96.60
2023-05-25T02:50:53.735Z,96.60
2023-05-25T02:53:21.767Z,96.70
2023-05-25T02:55:49.808Z,96.70
2023-05-25T02:58:19.255Z,96.80
2023-05-25T03:00:47.326Z,96.80
2023-05-25T03:03:15.436Z,96.90
2023-05-25T03:05:43.774Z,96.90
2023-05-25T03:08:12.020Z,96.90
2023-05-25T03:10:40.040Z,97.00
2023-05-25T03:13:08.037Z,97.00
2023-05-25T03:15:37.437Z,97.10
2023-05-25T03:18:05.599Z,97.40
2023-05-25T03:20:34.477Z,97.20
2023-05-25T03:23:02.704Z,97.30
2023-05-25T03:25:30.750Z,97.30
2023-05-25T03:27:58.825Z,97.70
2023-05-25T03:30:27.035Z,97.80
2023-05-25T03:32:56.498Z,97.60
2023-05-25T03:35:24.569Z,97.80
2023-05-25T03:37:52.633Z,97.60
2023-05-25T03:40:20.842Z,97.60
2023-05-25T03:42:48.907Z,97.50
2023-05-25T03:45:17.151Z,97.50
2023-05-25T03:47:45.559Z,97.50
2023-05-25T03:50:15.145Z,97.60
2023-05-25T03:52:43.180Z,97.60
2023-05-25T03:55:11.901Z,97.60
2023-05-25T03:57:40.225Z,97.80
2023-05-25T04:00:10.530Z,98.00
2023-05-25T04:02:38.633Z,98.30
2023-05-25T04:05:07.257Z,98.60
2023-05-25T04:07:37.239Z,98.60
2023-05-25T04:10:05.695Z,98.60
2023-05-25T04:12:34.967Z,98.60
2023-05-25T04:15:03.966Z,98.40
2023-05-25T04:17:32.045Z,98.20
2023-05-25T04:20:00.213Z,98.10
2023-05-25T04:22:28.351Z,98.00
2023-05-25T04:24:57.813Z,97.90
2023-05-25T04:27:26.355Z,97.90
2023-05-25T04:29:54.368Z,97.90
2023-05-25T04:32:22.417Z,97.90
2023-05-25T04:34:50.450Z,97.90
2023-05-25T04:37:18.561Z,98.00
2023-05-25T04:39:46.554Z,98.00
2023-05-25T04:42:17.097Z,98.10
2023-05-25T04:44:45.097Z,98.60
2023-05-25T04:47:13.642Z,98.40
2023-05-25T04:49:41.745Z,98.40
2023-05-25T04:52:09.862Z,98.50
2023-05-25T04:54:38.463Z,98.60
2023-05-25T04:57:06.884Z,98.70
2023-05-25T04:59:36.242Z,98.80
2023-05-25T05:02:04.331Z,98.90
2023-05-25T05:04:32.655Z,99.00
2023-05-25T05:07:00.982Z,99.10
2023-05-25T05:09:29.011Z,99.20
2023-05-25T05:11:57.085Z,99.20
2023-05-25T05:14:25.129Z,99.20
2023-05-25T05:16:54.534Z,99.60
2023-05-25T05:19:23.141Z,99.20
2023-05-25T05:21:51.337Z,99.20
2023-05-25T05:24:19.382Z,99.20
2023-05-25T05:26:57.272Z,99.30
2023-05-25T05:29:28.663Z,99.70
2023-05-25T05:31:58.180Z,99.40
2023-05-25T05:34:26.244Z,99.40
2023-05-25T05:36:57.983Z,99.50
2023-05-25T05:39:26.835Z,99.50
2023-05-25T05:41:55.051Z,99.60
2023-05-25T05:44:25.967Z,99.60
2023-05-25T05:47:00.843Z,99.60
2023-05-25T05:49:29.796Z,99.60
2023-05-25T05:51:57.962Z,99.60
2023-05-25T05:54:27.774Z,99.60
2023-05-25T05:56:56.132Z,99.60
2023-05-25T05:59:24.173Z,99.90
2023-05-25T06:01:52.315Z,99.70
2023-05-25T06:04:25.292Z,99.70
2023-05-25T06:06:53.360Z,99.80
2023-05-25T06:09:21.382Z,99.80
2023-05-25T06:11:49.512Z,99.90
2023-05-25T06:14:17.744Z,99.70
2023-05-25T06:16:45.869Z,99.70
2023-05-25T06:19:14.563Z,99.70
2023-05-25T06:21:44.004Z,99.60
2023-05-25T06:24:12.030Z,99.60
2023-05-25T06:26:40.078Z,99.50
2023-05-25T06:29:08.171Z,99.50
2023-05-25T06:31:36.438Z,99.50
2023-05-25T06:34:04.554Z,99.50
2023-05-25T06:36:32.667Z,99.30
2023-05-25T06:39:02.118Z,99.30
2023-05-25T06:41:30.842Z,99.30
2023-05-25T06:43:58.933Z,99.30
2023-05-25T06:46:27.036Z,99.10
2023-05-25T06:48:55.307Z,99.10
2023-05-25T06:51:23.327Z,98.90
2023-05-25T06:53:51.485Z,98.90
2023-05-25T06:56:21.539Z,98.80
2023-05-25T06:58:50.044Z,98.70
2023-05-25T07:01:18.403Z,98.50
2023-05-25T07:03:46.489Z,98.50
2023-05-25T07:06:15.227Z,98.70
2023-05-25T07:08:43.324Z,98.40
2023-05-25T07:11:14.020Z,98.70
2023-05-25T07:13:43.477Z,98.60
2023-05-25T07:16:11.516Z,98.00
2023-05-25T07:18:40.708Z,98.20
2023-05-25T07:21:10.113Z,97.90
2023-05-25T07:23:38.365Z,97.80
2023-05-25T07:26:06.545Z,98.00
2023-05-25T07:28:34.570Z,97.50
2023-05-25T07:31:03.942Z,97.60
2023-05-25T07:33:31.986Z,97.40
2023-05-25T07:36:00.038Z,97.10
2023-05-25T07:38:28.043Z,96.40
2023-05-25T07:40:56.177Z,96.70
2023-05-25T07:43:24.810Z,96.40
2023-05-25T07:45:52.854Z,96.60
2023-05-25T07:48:22.347Z,96.20
2023-05-25T07:50:50.523Z,96.10
2023-05-25T07:53:18.612Z,96.20
2023-05-25T07:55:46.996Z,96.30
2023-05-25T07:58:15.623Z,96.30
2023-05-25T08:00:44.187Z,96.10
2023-05-25T08:03:12.400Z,95.90
2023-05-25T08:05:44.248Z,96.10
2023-05-25T08:08:12.511Z,96.10
2023-05-25T08:10:40.626Z,95.80
2023-05-25T08:13:08.976Z,95.20
2023-05-25T08:15:37.036Z,95.10
2023-05-25T08:18:05.471Z,94.40
2023-05-25T08:20:33.593Z,94.20
2023-05-25T08:23:03.066Z,94.70
2023-05-25T08:25:31.137Z,94.70
2023-05-25T08:27:59.153Z,94.70
2023-05-25T08:30:27.307Z,94.80
2023-05-25T08:32:55.598Z,94.50
2023-05-25T08:35:23.748Z,94.20
2023-05-25T08:37:52.067Z,94.20
2023-05-25T08:40:24.224Z,94.10
2023-05-25T08:42:52.678Z,93.60
2023-05-25T08:45:34.126Z,93.20
2023-05-25T08:48:10.372Z,93.10
2023-05-25T08:50:41.368Z,93.00
2023-05-25T08:53:11.797Z,93.80
2023-05-25T08:55:44.512Z,93.40
2023-05-25T08:58:18.256Z,93.50
2023-05-25T09:00:56.032Z,93.30
2023-05-25T09:03:25.467Z,93.20
2023-05-25T09:05:53.680Z,93.00
2023-05-25T09:08:22.577Z,93.00
2023-05-25T09:10:54.782Z,92.70
2023-05-25T09:13:23.304Z,92.40
2023-05-25T09:15:52.960Z,92.00
2023-05-25T09:18:21.320Z,91.80
2023-05-25T09:20:49.904Z,91.70
2023-05-25T09:23:18.783Z,91.50
2023-05-25T09:25:50.688Z,91.90
2023-05-25T09:28:26.313Z,92.20
2023-05-25T09:30:55.478Z,92.30
2023-05-25T09:33:23.954Z,92.50
2023-05-25T09:35:52.870Z,92.70
2023-05-25T09:38:22.017Z,92.60
2023-05-25T09:40:50.415Z,92.40
2023-05-25T09:43:32.341Z,92.20
2023-05-25T09:46:07.978Z,92.30
2023-05-25T09:48:36.997Z,92.20
2023-05-25T09:51:05.439Z,92.40
2023-05-25T09:53:33.469Z,92.50
2023-05-25T09:56:04.091Z,92.10
2023-05-25T09:58:32.591Z,92.10
2023-05-25T10:01:01.216Z,91.60
2023-05-25T10:03:30.702Z,91.30
2023-05-25T10:05:59.172Z,91.30
2023-05-25T10:08:29.156Z,91.00
2023-05-25T10:10:57.348Z,91.40
2023-05-25T10:13:29.917Z,91.30
2023-05-25T10:15:59.337Z,91.60
2023-05-25T10:18:33.830Z,91.40
2023-05-25T10:21:04.970Z,91.40
2023-05-25T10:23:42.072Z,91.50
2023-05-25T10:26:11.205Z,91.40
2023-05-25T10:28:41.769Z,91.20
2023-05-25T10:31:10.894Z,91.20
2023-05-25T10:33:42.815Z,91.40
2023-05-25T10:36:13.403Z,91.30
2023-05-25T10:38:44.651Z,91.80
2023-05-25T10:41:13.158Z,91.70
2023-05-25T10:43:42.040Z,91.80
2023-05-25T10:46:10.986Z,92.30
2023-05-25T10:48:41.758Z,91.40
2023-05-25T10:51:11.875Z,91.60
2023-05-25T10:53:40.254Z,91.80
2023-05-25T10:56:10.652Z,91.30
2023-05-25T10:58:43.390Z,91.20
2023-05-25T11:01:13.058Z,91.40
2023-05-25T11:03:54.839Z,91.40
2023-05-25T11:06:24.431Z,91.80
2023-05-25T11:08:55.283Z,91.60
2023-05-25T11:11:23.482Z,91.20
2023-05-25T11:13:51.797Z,91.10
2023-05-25T11:16:22.137Z,91.50
2023-05-25T11:18:57.831Z,91.10
2023-05-25T11:21:45.098Z,91.20
2023-05-25T11:24:15.221Z,90.90
2023-05-25T11:26:57.454Z,90.70
2023-05-25T11:29:27.319Z,90.50
2023-05-25T11:31:56.604Z,90.70
2023-05-25T11:34:26.246Z,91.20
2023-05-25T11:37:01.701Z,90.80
2023-05-25T11:39:30.579Z,91.20
2023-05-25T11:42:03.928Z,90.80
2023-05-25T11:44:33.632Z,90.70
2023-05-25T11:47:06.011Z,90.50
2023-05-25T11:49:36.219Z,90.40
2023-05-25T11:52:07.648Z,90.30
2023-05-25T11:54:36.179Z,90.30
2023-05-25T11:57:04.752Z,90.40
2023-05-25T11:59:33.551Z,90.50
2023-05-25T12:02:02.674Z,90.60
2023-05-25T12:04:32.905Z,90.60
2023-05-25T12:07:06.528Z,90.20
2023-05-25T12:09:34.900Z,90.00
2023-05-25T12:12:05.248Z,90.10
2023-05-25T12:14:38.095Z,90.10
2023-05-25T12:17:07.844Z,90.30
2023-05-25T12:19:36.493Z,90.40
2023-05-25T12:22:06.572Z,90.30
2023-05-25T12:24:34.726Z,90.40
2023-05-25T12:27:04.780Z,90.50
2023-05-25T12:29:32.798Z,90.70
2023-05-25T12:32:05.002Z,91.00
2023-05-25T12:34:33.081Z,91.20
2023-05-25T12:37:01.561Z,91.30
2023-05-25T12:39:39.197Z,91.30
2023-05-25T12:42:15.120Z,91.40
2023-05-25T12:44:43.947Z,91.40
2023-05-25T12:47:14.648Z,91.40
2023-05-25T12:49:43.936Z,91.40
2023-05-25T12:52:13.123Z,91.30
2023-05-25T12:54:45.064Z,91.20
2023-05-25T12:57:14.945Z,91.30
2023-05-25T12:59:43.991Z,91.20
2023-05-25T13:02:12.910Z,91.10
2023-05-25T13:04:42.395Z,91.40
2023-05-25T13:07:11.599Z,91.50
2023-05-25T13:09:39.841Z,91.30
2023-05-25T13:12:09.716Z,91.00
2023-05-25T13:14:37.782Z,90.70
2023-05-25T13:17:06.175Z,90.50
2023-05-25T13:19:34.243Z,90.60
2023-05-25T13:22:02.317Z,90.70
2023-05-25T13:24:30.826Z,91.00
2023-05-25T13:26:58.829Z,91.20
2023-05-25T13:29:28.205Z,91.10
2023-05-25T13:31:56.296Z,90.60
2023-05-25T13:34:24.339Z,90.50
2023-05-25T13:36:52.393Z,90.80
2023-05-25T13:39:21.964Z,90.30
2023-05-25T13:41:50.056Z,90.30
2023-05-25T13:44:18.129Z,90.20
2023-05-25T13:46:48.357Z,90.10
2023-05-25T13:49:19.477Z,90.40
2023-05-25T13:51:47.606Z,90.70
2023-05-25T13:54:15.658Z,90.50
2023-05-25T13:56:43.681Z,90.10
2023-05-25T13:59:11.724Z,90.10
2023-05-25T14:01:39.832Z,90.40
2023-05-25T14:04:10.146Z,90.70
2023-05-25T14:06:38.234Z,90.30
2023-05-25T14:09:07.031Z,90.60
2023-05-25T14:11:35.410Z,91.00
2023-05-25T14:14:03.827Z,90.50
2023-05-25T14:16:31.994Z,90.60
2023-05-25T14:19:00.115Z,90.20
2023-05-25T14:21:30.912Z,90.60
2023-05-25T14:23:58.954Z,90.40
2023-05-25T14:26:27.974Z,90.00
2023-05-25T14:28:56.263Z,90.10
2023-05-25T14:31:24.317Z,90.20
2023-05-25T14:33:52.408Z,90.30
2023-05-25T14:36:20.414Z,89.80
2023-05-25T14:38:49.849Z,89.50
2023-05-25T14:41:17.963Z,89.70
2023-05-25T14:43:46.009Z,90.00
2023-05-25T14:46:14.174Z,90.00
2023-05-25T14:48:42.465Z,90.30
2023-05-25T14:51:10.589Z,90.10
2023-05-25T14:53:38.650Z,90.30
2023-05-25T14:56:10.473Z,89.70
2023-05-25T14:58:39.360Z,89.30
2023-05-25T15:01:07.440Z,88.60
2023-05-25T15:03:35.506Z,88.10
2023-05-25T15:06:03.677Z,88.20
2023-05-25T15:08:31.700Z,89.00
2023-05-25T15:10:59.812Z,88.40
2023-05-25T15:13:29.201Z,89.80
2023-05-25T15:15:57.812Z,89.50
2023-05-25T15:18:26.057Z,88.80
2023-05-25T15:20:54.131Z,88.20
2023-05-25T15:23:22.117Z,87.80
2023-05-25T15:25:50.153Z,87.70
2023-05-25T15:28:18.223Z,87.90
2023-05-25T15:30:47.738Z,87.20
2023-05-25T15:33:16.031Z,86.30
2023-05-25T15:35:44.242Z,86.00
2023-05-25T15:38:12.404Z,86.00
2023-05-25T15:40:40.440Z,86.60
2023-05-25T15:43:08.437Z,86.60
2023-05-25T15:45:37.595Z,86.90
2023-05-25T15:48:10.156Z,87.30
2023-05-25T15:50:39.540Z,87.80
2023-05-25T15:53:07.818Z,88.80
2023-05-25T15:55:35.890Z,89.40
2023-05-25T15:58:03.925Z,88.70
2023-05-25T16:00:32.942Z,86.90
2023-05-25T16:03:01.017Z,87.00
2023-05-25T16:05:30.839Z,87.40
2023-05-25T16:07:58.942Z,87.40
2023-05-25T16:10:26.994Z,87.30
2023-05-25T16:12:55.020Z,87.10
2023-05-25T16:15:23.687Z,86.30
2023-05-25T16:17:51.769Z,86.50
2023-05-25T16:20:20.028Z,85.10
2023-05-25T16:22:49.560Z,84.90
2023-05-25T16:25:17.628Z,85.40
2023-05-25T16:27:45.800Z,85.00
2023-05-25T16:30:14.268Z,86.00
2023-05-25T16:32:42.401Z,84.90
2023-05-25T16:35:10.945Z,84.60
2023-05-25T16:37:39.092Z,83.10
2023-05-25T16:40:10.072Z,83.90
2023-05-25T16:42:38.124Z,85.00
2023-05-25T16:45:07.342Z,84.90
2023-05-25T16:47:35.437Z,83.90
2023-05-25T16:50:03.511Z,84.40
2023-05-25T16:52:31.562Z,84.00
2023-05-25T16:54:59.652Z,84.20
2023-05-25T16:57:29.047Z,84.00
2023-05-25T16:59:57.123Z,82.70
2023-05-25T17:02:25.287Z,81.40
2023-05-25T17:04:53.380Z,81.40
2023-05-25T17:07:21.648Z,82.30
2023-05-25T17:09:49.738Z,83.60
2023-05-25T17:12:17.822Z,83.50
2023-05-25T17:14:47.230Z,83.30
2023-05-25T17:17:15.643Z,84.50
2023-05-25T17:19:43.679Z,83.50
2023-05-25T17:22:11.741Z,83.70
2023-05-25T17:24:39.777Z,84.10
2023-05-25T17:27:07.825Z,85.20
2023-05-25T17:29:35.991Z,85.30
2023-05-25T17:32:06.023Z,84.70
2023-05-25T17:34:34.184Z,84.90
2023-05-25T17:37:02.171Z,84.90
2023-05-25T17:39:30.191Z,85.80
2023-05-25T17:41:58.291Z,85.10
2023-05-25T17:44:26.879Z,85.50
2023-05-25T17:46:54.917Z,86.10
2023-05-25T17:49:24.271Z,86.60
2023-05-25T17:51:52.420Z,86.20
2023-05-25T17:54:25.526Z,85.90
2023-05-25T17:56:53.863Z,86.00
2023-05-25T17:59:21.930Z,86.00
2023-05-25T18:01:50.083Z,85.80
2023-05-25T18:04:19.551Z,86.30
2023-05-25T18:06:51.532Z,85.30
2023-05-25T18:09:19.766Z,84.80
2023-05-25T18:11:48.093Z,85.20
2023-05-25T18:14:16.167Z,84.80
2023-05-25T18:16:44.904Z,84.00
2023-05-25T18:19:15.241Z,84.10
2023-05-25T18:21:43.343Z,84.10
2023-05-25T18:24:12.773Z,84.00
2023-05-25T18:26:42.195Z,83.80
2023-05-25T18:29:10.403Z,83.80
2023-05-25T18:31:38.514Z,83.80
2023-05-25T18:34:07.491Z,84.00
2023-05-25T18:36:36.550Z,84.40
2023-05-25T18:39:05.281Z,84.80
2023-05-25T18:41:35.971Z,85.10
2023-05-25T18:44:04.039Z,86.20
2023-05-25T18:46:32.118Z,86.60
2023-05-25T18:49:00.265Z,86.00
2023-05-25T18:51:28.279Z,86.50
2023-05-25T18:53:58.595Z,86.80
2023-05-25T18:56:26.609Z,87.90
2023-05-25T18:58:57.116Z,88.00
2023-05-25T19:01:25.721Z,87.70
2023-05-25T19:03:56.003Z,87.80
2023-05-25T19:06:25.631Z,88.00
2023-05-25T19:08:55.247Z,88.30
2023-05-25T19:11:23.331Z,88.50
2023-05-25T19:13:51.359Z,88.60
2023-05-25T19:16:20.854Z,88.70
2023-05-25T19:18:48.985Z,89.00
2023-05-25T19:21:17.071Z,89.10
2023-05-25T19:23:45.723Z,89.20
2023-05-25T19:26:13.782Z,89.30
2023-05-25T19:28:41.783Z,90.00
2023-05-25T19:31:09.908Z,89.50
2023-05-25T19:33:39.465Z,90.10
2023-05-25T19:36:07.570Z,89.70
2023-05-25T19:38:41.096Z,89.70
2023-05-25T19:41:10.448Z,89.80
2023-05-25T19:43:38.641Z,90.00
2023-05-25T19:46:07.119Z,90.00
2023-05-25T19:48:35.316Z,90.10
2023-05-25T19:51:04.885Z,90.20
2023-05-25T19:53:32.997Z,90.20
2023-05-25T19:56:01.234Z,90.60
2023-05-25T19:58:29.306Z,90.30
2023-05-25T20:00:57.714Z,90.40
2023-05-25T20:03:26.223Z,90.50
2023-05-25T20:05:54.557Z,90.60
2023-05-25T20:08:24.965Z,90.80
2023-05-25T20:10:53.876Z,90.80
2023-05-25T20:13:22.011Z,90.90
2023-05-25T20:15:50.183Z,90.90
2023-05-25T20:18:18.268Z,91.00
2023-05-25T20:20:46.560Z,91.00
2023-05-25T20:23:14.648Z,91.00
2023-05-25T20:25:44.323Z,91.00
2023-05-25T20:28:12.733Z,91.00
2023-05-25T20:30:40.808Z,91.00
2023-05-25T20:33:08.854Z,91.00
2023-05-25T20:35:38.445Z,90.90
2023-05-25T20:38:06.488Z,91.20
2023-05-25T20:40:34.570Z,90.80
2023-05-25T20:43:04.111Z,90.80
2023-05-25T20:45:32.198Z,90.80
2023-05-25T20:48:01.603Z,90.80
2023-05-25T20:50:29.886Z,90.70
2023-05-25T20:52:58.198Z,90.70
2023-05-25T20:55:27.491Z,90.70
2023-05-25T20:57:56.602Z,90.60
2023-05-25T21:00:26.396Z,90.60
2023-05-25T21:02:54.515Z,90.60
2023-05-25T21:05:22.689Z,90.60
2023-05-25T21:07:51.849Z,90.60
2023-05-25T21:10:19.999Z,90.60
2023-05-25T21:12:48.030Z,90.60
2023-05-25T21:15:16.163Z,90.60
2023-05-25T21:17:45.695Z,90.90
2023-05-25T21:20:13.880Z,90.60
2023-05-25T21:22:42.057Z,90.70
2023-05-25T21:25:11.501Z,90.70
2023-05-25T21:27:39.522Z,90.60
2023-05-25T21:30:08.779Z,90.70
2023-05-25T21:32:36.887Z,90.70
2023-05-25T21:35:06.598Z,90.70
2023-05-25T21:37:34.904Z,90.70
2023-05-25T21:40:03.370Z,90.80
2023-05-25T21:42:31.406Z,90.70
2023-05-25T21:44:59.437Z,90.70
2023-05-25T21:47:27.552Z,90.70
2023-05-25T21:49:57.140Z,90.80
2023-05-25T21:52:26.703Z,90.80
2023-05-25T21:54:54.706Z,90.80
2023-05-25T21:57:22.726Z,90.90
2023-05-25T21:59:50.887Z,90.90
2023-05-25T22:02:18.975Z,91.00
2023-05-25T22:04:47.027Z,91.00
2023-05-25T22:07:15.208Z,91.40
2023-05-25T22:09:44.626Z,91.20
2023-05-25T22:12:13.130Z,91.20
2023-05-25T22:14:41.174Z,91.30
2023-05-25T22:17:09.259Z,91.30
2023-05-25T22:19:37.378Z,91.30
2023-05-25T22:22:05.836Z,91.30
2023-05-25T22:24:33.853Z,91.40
2023-05-25T22:27:03.826Z,91.40
2023-05-25T22:29:31.833Z,91.60
2023-05-25T22:31:59.857Z,91.70
2023-05-25T22:34:27.860Z,91.70
2023-05-25T22:36:56.006Z,91.70
2023-05-25T22:39:24.038Z,91.70
2023-05-25T22:41:52.840Z,91.70
2023-05-25T22:44:22.346Z,91.70
2023-05-25T22:46:50.499Z,91.70
2023-05-25T22:49:18.503Z,91.70
2023-05-25T22:51:46.603Z,91.70
2023-05-25T22:54:14.622Z,91.70
2023-05-25T22:56:42.635Z,91.70
2023-05-25T22:59:10.645Z,92.00
2023-05-25T23:01:40.219Z,91.70
2023-05-25T23:04:08.951Z,91.70
2023-05-25T23:06:37.276Z,91.80
2023-05-25T23:09:05.607Z,91.80
2023-05-25T23:11:33.679Z,91.80
2023-05-25T23:14:01.755Z,91.90
2023-05-25T23:16:30.049Z,91.90
2023-05-25T23:18:59.534Z,92.00
2023-05-25T23:21:27.550Z,92.00
2023-05-25T23:23:55.616Z,92.00
2023-05-25T23:26:23.647Z,92.10
2023-05-25T23:28:51.723Z,92.20
2023-05-25T23:31:20.799Z,92.20
2023-05-25T23:33:48.872Z,92.30
2023-05-25T23:36:18.289Z,92.40
2023-05-25T23:38:46.863Z,92.60
2023-05-25T23:41:16.492Z,92.60
2023-05-25T23:43:44.578Z,92.70
2023-05-25T23:46:14.589Z,92.70
2023-05-25T23:48:42.726Z,92.80
2023-05-25T23:51:11.705Z,92.80
2023-05-25T23:53:41.207Z,93.10
2023-05-25T23:56:09.303Z,92.90
2023-05-25T23:58:37.359Z,92.90
